Time;durP1;ratioP1;P1;durP2;ratioP2;P2;SDS_P1;SDS_P2;PMS_P1;PMS_P2;Temp;Humidity;BMP_temperature;BMP_pressure;BME280_temperature;BME280_humidity;BME280_pressure;Samples;Min_cycle;Max_cycle;Signal;HPM_P1;HPM_P2
2023/06/16 00:00:51;;;;;;;11.25;7.72;;;;;;;;;;4997709;28;20026;-59
2023/06/16 00:03:18;;;;;;;10.40;7.32;;;;;;;;;;4996493;28;20076;-59
2023/06/16 00:05:44;;;;;;;9.02;7.30;;;;;;;;;;4997634;28;20041;-59
2023/06/16 00:08:12;;;;;;;12.10;7.32;;;;;;;;;;4996274;28;20038;-59
2023/06/16 00:10:38;;;;;;;10.75;7.22;;;;;;;;;;4995246;28;20400;-59
2023/06/16 00:13:04;;;;;;;10.57;5.95;;;;;;;;;;4996762;28;20026;-59
2023/06/16 00:15:30;;;;;;;9.38;6.93;;;;;;;;;;4996224;28;20044;-59
2023/06/16 00:17:56;;;;;;;11.18;7.70;;;;;;;;;;4997522;28;20831;-59
2023/06/16 00:20:26;;;;;;;11.73;6.95;;;;;;;;;;4996871;28;20071;-59
2023/06/16 00:22:54;;;;;;;8.63;6.65;;;;;;;;;;4994768;28;20071;-59
2023/06/16 00:25:20;;;;;;;8.25;6.00;;;;;;;;;;4996852;28;20030;-59
2023/06/16 00:27:47;;;;;;;8.90;7.07;;;;;;;;;;4996544;28;20030;-59
2023/06/16 00:30:13;;;;;;;10.57;6.70;;;;;;;;;;4995725;28;20034;-59
2023/06/16 00:32:39;;;;;;;10.18;6.30;;;;;;;;;;4996593;28;20030;-59
2023/06/16 00:35:05;;;;;;;9.60;6.55;;;;;;;;;;4994884;28;20803;-59
2023/06/16 00:37:32;;;;;;;9.73;6.75;;;;;;;;;;4997409;28;20030;-59
2023/06/16 00:39:58;;;;;;;8.73;6.15;;;;;;;;;;5002388;28;20053;-59
2023/06/16 00:42:24;;;;;;;9.73;6.38;;;;;;;;;;4995485;28;20030;-59
2023/06/16 00:44:51;;;;;;;9.68;6.35;;;;;;;;;;4996542;28;20032;-59
2023/06/16 00:47:17;;;;;;;7.57;5.75;;;;;;;;;;4995811;28;20519;-59
2023/06/16 00:49:43;;;;;;;11.07;6.45;;;;;;;;;;4997378;28;20069;-59
2023/06/16 00:52:10;;;;;;;9.27;6.20;;;;;;;;;;4996470;28;20468;-59
2023/06/16 00:54:37;;;;;;;9.98;6.32;;;;;;;;;;4996442;28;20034;-59
2023/06/16 00:57:03;;;;;;;7.50;6.10;;;;;;;;;;5000995;28;20081;-59
2023/06/16 00:59:30;;;;;;;8.15;6.03;;;;;;;;;;4996042;28;20037;-59
2023/06/16 01:01:56;;;;;;;9.38;5.68;;;;;;;;;;4995071;28;20119;-59
2023/06/16 01:04:23;;;;;;;7.43;5.95;;;;;;;;;;4996434;28;20048;-59
2023/06/16 01:06:51;;;;;;;9.27;6.07;;;;;;;;;;4996107;28;20381;-59
2023/06/16 01:09:27;;;;;;;10.25;5.60;;;;;;;;;;4995613;28;20119;-59
2023/06/16 01:12:20;;;;;;;10.73;5.93;;;;;;;;;;4996896;28;21279;-59
2023/06/16 01:14:46;;;;;;;8.95;6.35;;;;;;;;;;4980153;28;20283;-59
2023/06/16 01:17:15;;;;;;;8.18;6.30;;;;;;;;;;4993938;28;20119;-59
2023/06/16 01:19:45;;;;;;;9.30;6.70;;;;;;;;;;4996900;28;20029;-59
2023/06/16 01:22:30;;;;;;;10.13;6.25;;;;;;;;;;4996282;28;20744;-59
2023/06/16 01:24:57;;;;;;;7.90;6.15;;;;;;;;;;4995324;28;20029;-59
2023/06/16 01:27:24;;;;;;;8.05;6.45;;;;;;;;;;4992862;28;20037;-59
2023/06/16 01:29:51;;;;;;;8.13;6.53;;;;;;;;;;4997377;28;20358;-59
2023/06/16 01:32:18;;;;;;;7.95;6.13;;;;;;;;;;4999475;28;20121;-59
2023/06/16 01:34:45;;;;;;;8.52;6.25;;;;;;;;;;4999428;28;20044;-59
2023/06/16 01:37:13;;;;;;;8.88;6.50;;;;;;;;;;4999795;28;20133;-59
2023/06/16 01:39:40;;;;;;;9.13;6.20;;;;;;;;;;5001031;28;20041;-59
2023/06/16 01:42:07;;;;;;;9.32;6.20;;;;;;;;;;4998973;28;20046;-59
2023/06/16 01:44:33;;;;;;;9.20;7.00;;;;;;;;;;4999728;28;20092;-59
2023/06/16 01:46:59;;;;;;;9.88;6.40;;;;;;;;;;4999739;28;20034;-59
2023/06/16 01:49:25;;;;;;;8.63;6.80;;;;;;;;;;4999562;28;20036;-59
2023/06/16 01:51:51;;;;;;;9.55;6.43;;;;;;;;;;4999993;28;20030;-59
2023/06/16 01:54:18;;;;;;;12.02;7.97;;;;;;;;;;5000009;28;20037;-59
2023/06/16 01:56:44;;;;;;;8.95;6.60;;;;;;;;;;4999561;28;20033;-59
2023/06/16 01:59:10;;;;;;;9.68;6.50;;;;;;;;;;5000306;28;20044;-59
2023/06/16 02:01:53;;;;;;;8.07;6.30;;;;;;;;;;4999790;28;20515;-59
2023/06/16 02:04:21;;;;;;;9.95;6.65;;;;;;;;;;4999944;28;20064;-59
2023/06/16 02:06:47;;;;;;;8.50;6.15;;;;;;;;;;4997982;28;20037;-59
2023/06/16 02:09:13;;;;;;;9.70;6.40;;;;;;;;;;4999613;28;20109;-59
2023/06/16 02:11:40;;;;;;;9.90;6.70;;;;;;;;;;4998172;28;20133;-59
2023/06/16 02:14:06;;;;;;;11.10;7.28;;;;;;;;;;4999784;28;20034;-59
2023/06/16 02:16:36;;;;;;;8.82;7.25;;;;;;;;;;4999820;28;20105;-59
2023/06/16 02:19:03;;;;;;;9.65;7.28;;;;;;;;;;4999233;28;20053;-59
2023/06/16 02:21:29;;;;;;;9.70;7.80;;;;;;;;;;4998689;28;20038;-59
2023/06/16 02:23:55;;;;;;;10.45;8.18;;;;;;;;;;4999678;28;20033;-59
2023/06/16 02:26:21;;;;;;;9.65;7.28;;;;;;;;;;4999140;28;20026;-59
2023/06/16 02:28:48;;;;;;;11.35;8.18;;;;;;;;;;4998842;28;20045;-59
2023/06/16 02:31:18;;;;;;;10.43;7.88;;;;;;;;;;4999972;28;20142;-59
2023/06/16 02:33:44;;;;;;;11.40;8.60;;;;;;;;;;4999665;28;20029;-59
2023/06/16 02:36:10;;;;;;;9.25;7.13;;;;;;;;;;4999189;28;20034;-59
2023/06/16 02:38:37;;;;;;;12.15;7.95;;;;;;;;;;4998229;28;20049;-59
2023/06/16 02:41:03;;;;;;;10.05;8.45;;;;;;;;;;4998533;28;20137;-59
2023/06/16 02:43:29;;;;;;;11.70;8.52;;;;;;;;;;4998865;28;20021;-59
2023/06/16 02:45:55;;;;;;;11.25;8.50;;;;;;;;;;4999063;28;20921;-59
2023/06/16 02:48:21;;;;;;;11.27;8.38;;;;;;;;;;4998713;28;20111;-59
2023/06/16 02:50:47;;;;;;;10.77;8.70;;;;;;;;;;4994970;28;20092;-59
2023/06/16 02:53:13;;;;;;;15.95;9.02;;;;;;;;;;4997851;28;20025;-59
2023/06/16 02:55:39;;;;;;;12.48;8.60;;;;;;;;;;4995762;28;20061;-59
2023/06/16 02:58:05;;;;;;;11.80;9.23;;;;;;;;;;4999268;28;20477;-59
2023/06/16 03:00:31;;;;;;;12.68;8.68;;;;;;;;;;4998514;28;21757;-59
2023/06/16 03:02:57;;;;;;;12.60;10.10;;;;;;;;;;4998841;28;20388;-59
2023/06/16 03:05:27;;;;;;;13.25;9.32;;;;;;;;;;4998241;28;20021;-59
2023/06/16 03:07:53;;;;;;;10.32;8.60;;;;;;;;;;4997635;28;20687;-59
2023/06/16 03:10:20;;;;;;;12.88;9.20;;;;;;;;;;4998904;28;20056;-59
2023/06/16 03:12:46;;;;;;;11.75;8.82;;;;;;;;;;4998048;28;20034;-59
2023/06/16 03:15:12;;;;;;;10.88;8.60;;;;;;;;;;4998328;28;20026;-59
2023/06/16 03:17:38;;;;;;;12.68;8.07;;;;;;;;;;4998209;28;20076;-59
2023/06/16 03:20:05;;;;;;;11.60;8.75;;;;;;;;;;4998090;28;20148;-59
2023/06/16 03:22:31;;;;;;;11.07;8.48;;;;;;;;;;4997912;28;20088;-59
2023/06/16 03:25:02;;;;;;;10.75;8.57;;;;;;;;;;4998782;28;20040;-59
2023/06/16 03:27:29;;;;;;;10.25;8.00;;;;;;;;;;4997627;28;20065;-59
2023/06/16 03:29:55;;;;;;;12.13;8.73;;;;;;;;;;4997871;28;20053;-59
2023/06/16 03:32:21;;;;;;;11.70;9.35;;;;;;;;;;4997936;28;20053;-58
2023/06/16 03:34:48;;;;;;;10.32;8.77;;;;;;;;;;4996609;28;20026;-58
2023/06/16 03:37:14;;;;;;;12.50;8.88;;;;;;;;;;4994881;28;20038;-59
2023/06/16 03:39:40;;;;;;;10.02;8.13;;;;;;;;;;4998043;28;20033;-59
2023/06/16 03:42:07;;;;;;;10.52;9.00;;;;;;;;;;4996088;28;20444;-59
2023/06/16 03:44:33;;;;;;;10.40;8.68;;;;;;;;;;4995586;28;20056;-58
2023/06/16 03:46:59;;;;;;;13.55;9.73;;;;;;;;;;4997108;28;20057;-59
2023/06/16 03:49:25;;;;;;;13.45;9.73;;;;;;;;;;4995342;28;21118;-59
2023/06/16 03:51:51;;;;;;;10.70;9.00;;;;;;;;;;4996225;28;20030;-59
2023/06/16 03:54:18;;;;;;;11.05;9.77;;;;;;;;;;4995033;28;20393;-59
2023/06/16 03:56:45;;;;;;;10.57;9.48;;;;;;;;;;4997718;28;20026;-59
2023/06/16 03:59:11;;;;;;;11.20;9.32;;;;;;;;;;4995903;28;20037;-59
2023/06/16 04:01:37;;;;;;;12.88;10.15;;;;;;;;;;4998381;28;20062;-59
2023/06/16 04:04:06;;;;;;;12.55;10.65;;;;;;;;;;4997918;28;20048;-59
2023/06/16 04:06:34;;;;;;;13.15;10.38;;;;;;;;;;4996477;28;20033;-59
2023/06/16 04:09:01;;;;;;;14.38;11.80;;;;;;;;;;4992285;28;20758;-59
2023/06/16 04:11:27;;;;;;;13.82;11.23;;;;;;;;;;4997251;28;20029;-59
2023/06/16 04:13:53;;;;;;;15.52;12.02;;;;;;;;;;4997730;28;20123;-59
2023/06/16 04:16:19;;;;;;;12.88;11.48;;;;;;;;;;4996816;28;20690;-59
2023/06/16 04:18:48;;;;;;;13.05;11.65;;;;;;;;;;4997711;28;20496;-59
2023/06/16 04:21:17;;;;;;;13.18;11.77;;;;;;;;;;4995966;28;21080;-59
2023/06/16 04:23:43;;;;;;;13.98;11.50;;;;;;;;;;4996427;28;20044;-59
2023/06/16 04:26:09;;;;;;;15.95;12.35;;;;;;;;;;4997571;28;20038;-59
2023/06/16 04:28:38;;;;;;;14.38;12.32;;;;;;;;;;4997391;28;20037;-59
2023/06/16 04:31:06;;;;;;;15.07;12.85;;;;;;;;;;4997273;28;20029;-59
2023/06/16 04:33:32;;;;;;;13.77;12.27;;;;;;;;;;4997140;28;20022;-59
2023/06/16 04:35:59;;;;;;;16.92;13.73;;;;;;;;;;4996552;28;20215;-59
2023/06/16 04:38:25;;;;;;;14.75;13.15;;;;;;;;;;4995517;28;20029;-59
2023/06/16 04:40:52;;;;;;;15.70;12.68;;;;;;;;;;4996468;28;20033;-59
2023/06/16 04:43:18;;;;;;;16.38;14.25;;;;;;;;;;4996341;28;20037;-59
2023/06/16 04:45:44;;;;;;;15.82;13.18;;;;;;;;;;4996365;28;20034;-59
2023/06/16 04:48:10;;;;;;;17.08;13.60;;;;;;;;;;4996917;28;20112;-59
2023/06/16 04:50:36;;;;;;;18.65;13.25;;;;;;;;;;4996418;28;20076;-59
2023/06/16 04:53:03;;;;;;;16.88;14.45;;;;;;;;;;4997137;28;20060;-59
2023/06/16 04:55:30;;;;;;;17.30;13.90;;;;;;;;;;4997271;28;20084;-59
2023/06/16 04:57:56;;;;;;;17.83;12.88;;;;;;;;;;4995909;28;20128;-59
2023/06/16 05:00:22;;;;;;;17.30;13.70;;;;;;;;;;4996541;28;20052;-59
2023/06/16 05:02:48;;;;;;;15.07;12.95;;;;;;;;;;5003611;28;20029;-59
2023/06/16 05:05:14;;;;;;;16.38;12.73;;;;;;;;;;4998614;28;20034;-59
2023/06/16 05:07:40;;;;;;;14.60;12.45;;;;;;;;;;5000772;28;20116;-59
2023/06/16 05:10:07;;;;;;;14.65;13.05;;;;;;;;;;4999958;28;20040;-59
2023/06/16 05:12:33;;;;;;;15.35;13.02;;;;;;;;;;4999893;28;20033;-59
2023/06/16 05:14:59;;;;;;;15.18;12.00;;;;;;;;;;4999325;28;20060;-59
2023/06/16 05:17:25;;;;;;;15.45;13.23;;;;;;;;;;4995344;28;20667;-59
2023/06/16 05:19:51;;;;;;;13.73;12.20;;;;;;;;;;4997899;28;20034;-59
2023/06/16 05:36:35;;;;;;;13.32;10.05;;;;;;;;;;5006933;28;20073;-59
2023/06/16 05:39:01;;;;;;;14.32;11.38;;;;;;;;;;5491380;22;20143;-59
2023/06/16 05:43:55;;;;;;;12.15;9.85;;;;;;;;;;5147806;22;20723;-59
2023/06/16 05:46:21;;;;;;;11.02;9.38;;;;;;;;;;5015485;28;20191;-59
2023/06/16 05:48:47;;;;;;;13.23;10.15;;;;;;;;;;5021581;28;20067;-59
2023/06/16 05:51:13;;;;;;;11.52;10.07;;;;;;;;;;5021524;28;20025;-59
2023/06/16 06:02:27;;;;;;;14.00;9.63;;;;;;;;;;5448782;23;20123;-59
2023/06/16 06:04:53;;;;;;;11.93;9.65;;;;;;;;;;5213914;23;20086;-65
2023/06/16 06:07:19;;;;;;;12.18;8.70;;;;;;;;;;5435289;23;20074;-59
2023/06/16 06:09:46;;;;;;;11.10;9.93;;;;;;;;;;4956648;28;20046;-59
2023/06/16 06:12:12;;;;;;;10.20;8.80;;;;;;;;;;4957709;28;20022;-59
2023/06/16 06:14:38;;;;;;;12.23;10.07;;;;;;;;;;4957515;28;20161;-59
2023/06/16 06:17:04;;;;;;;12.43;10.05;;;;;;;;;;4956713;28;20031;-60
2023/06/16 06:19:30;;;;;;;12.40;9.52;;;;;;;;;;4957282;28;20036;-59
2023/06/16 06:21:57;;;;;;;13.40;9.23;;;;;;;;;;4956283;28;20125;-59
2023/06/16 06:24:23;;;;;;;13.88;9.32;;;;;;;;;;4954386;28;20098;-59
2023/06/16 06:26:49;;;;;;;12.32;9.75;;;;;;;;;;4954898;28;20654;-59
2023/06/16 06:29:15;;;;;;;11.25;9.32;;;;;;;;;;4955508;28;20046;-59
2023/06/16 06:31:41;;;;;;;10.25;9.15;;;;;;;;;;4955751;28;20100;-59
2023/06/16 06:34:07;;;;;;;14.45;10.32;;;;;;;;;;4956064;28;20368;-59
2023/06/16 06:36:36;;;;;;;9.90;8.80;;;;;;;;;;4954343;28;20082;-59
2023/06/16 06:39:03;;;;;;;12.50;9.52;;;;;;;;;;4954914;28;20027;-59
2023/06/16 06:41:29;;;;;;;9.80;8.10;;;;;;;;;;4955791;28;20453;-59
2023/06/16 06:43:55;;;;;;;11.10;8.27;;;;;;;;;;4955247;28;20665;-59
2023/06/16 06:46:21;;;;;;;10.35;8.43;;;;;;;;;;4956061;28;21345;-59
2023/06/16 06:48:47;;;;;;;9.23;7.55;;;;;;;;;;4955619;28;20054;-59
2023/06/16 06:51:13;;;;;;;9.95;7.88;;;;;;;;;;4957365;28;20038;-59
2023/06/16 06:53:40;;;;;;;9.23;7.35;;;;;;;;;;4956685;28;20028;-59
2023/06/16 06:56:06;;;;;;;9.73;7.28;;;;;;;;;;4956967;28;20466;-59
2023/06/16 06:58:35;;;;;;;8.73;6.85;;;;;;;;;;4956648;28;20649;-59
2023/06/16 07:01:01;;;;;;;9.52;7.80;;;;;;;;;;4956519;28;20663;-59
2023/06/16 07:03:28;;;;;;;9.60;7.22;;;;;;;;;;4956458;28;20089;-59
2023/06/16 07:05:54;;;;;;;9.80;7.10;;;;;;;;;;4955868;28;21089;-59
2023/06/16 07:08:20;;;;;;;10.80;6.72;;;;;;;;;;4956713;28;20161;-59
2023/06/16 07:10:46;;;;;;;10.43;7.80;;;;;;;;;;4956477;28;20115;-59
2023/06/16 07:13:12;;;;;;;8.98;6.32;;;;;;;;;;4957070;28;20046;-59
2023/06/16 07:15:38;;;;;;;7.68;5.78;;;;;;;;;;4955672;28;20070;-59
2023/06/16 07:18:04;;;;;;;7.00;5.30;;;;;;;;;;4955654;28;20038;-59
2023/06/16 07:20:30;;;;;;;10.23;6.25;;;;;;;;;;4956680;28;20030;-59
2023/06/16 07:22:57;;;;;;;7.57;4.70;;;;;;;;;;4956472;28;20130;-59
2023/06/16 07:25:23;;;;;;;7.97;5.07;;;;;;;;;;4957224;28;20027;-59
2023/06/16 07:27:49;;;;;;;6.63;4.25;;;;;;;;;;4956005;28;20059;-59
2023/06/16 07:30:15;;;;;;;8.25;5.05;;;;;;;;;;4956229;28;20631;-59
2023/06/16 07:32:41;;;;;;;8.35;5.45;;;;;;;;;;4956619;28;21074;-59
2023/06/16 07:35:08;;;;;;;9.43;5.40;;;;;;;;;;4956516;28;20042;-59
2023/06/16 07:37:34;;;;;;;6.63;4.85;;;;;;;;;;4956226;28;20026;-60
2023/06/16 07:40:00;;;;;;;6.82;5.03;;;;;;;;;;4956321;28;20042;-59
2023/06/16 07:42:26;;;;;;;6.63;4.72;;;;;;;;;;4956963;28;20625;-59
2023/06/16 07:44:52;;;;;;;6.88;4.35;;;;;;;;;;4955468;28;20385;-59
2023/06/16 07:47:19;;;;;;;5.78;3.78;;;;;;;;;;4956464;28;20043;-59
2023/06/16 07:49:45;;;;;;;6.45;3.75;;;;;;;;;;4956144;28;20039;-59
2023/06/16 07:52:13;;;;;;;8.43;3.92;;;;;;;;;;4954567;28;20062;-59
2023/06/16 07:54:40;;;;;;;10.52;3.65;;;;;;;;;;4955678;28;20049;-59
2023/06/16 07:57:07;;;;;;;7.90;3.65;;;;;;;;;;4952611;28;21879;-59
2023/06/16 07:59:33;;;;;;;5.10;2.88;;;;;;;;;;4955557;28;20061;-59
2023/06/16 08:02:01;;;;;;;7.18;2.65;;;;;;;;;;4950601;28;21010;-59
2023/06/16 08:04:29;;;;;;;5.03;2.30;;;;;;;;;;4942268;28;20751;-59
2023/06/16 08:06:56;;;;;;;5.47;2.40;;;;;;;;;;4944843;28;20120;-59
2023/06/16 08:09:23;;;;;;;5.63;2.30;;;;;;;;;;4945519;28;20069;-59
2023/06/16 08:11:49;;;;;;;4.50;2.20;;;;;;;;;;4943779;28;20022;-59
2023/06/16 08:14:15;;;;;;;6.15;1.98;;;;;;;;;;4945376;28;20027;-59
2023/06/16 08:16:41;;;;;;;5.18;2.47;;;;;;;;;;4945919;28;20469;-59
2023/06/16 08:19:08;;;;;;;6.78;2.25;;;;;;;;;;4944087;28;20057;-59
2023/06/16 08:21:35;;;;;;;4.22;1.90;;;;;;;;;;4945572;28;21906;-59
2023/06/16 08:24:01;;;;;;;4.22;1.92;;;;;;;;;;4945320;28;20033;-59
2023/06/16 08:26:28;;;;;;;4.20;2.05;;;;;;;;;;4945742;28;21048;-59
2023/06/16 08:28:54;;;;;;;3.70;1.90;;;;;;;;;;4942218;28;20034;-59
2023/06/16 08:31:20;;;;;;;4.82;2.10;;;;;;;;;;4941863;28;20433;-59
2023/06/16 08:33:46;;;;;;;4.65;2.03;;;;;;;;;;4943872;28;20041;-59
2023/06/16 08:36:12;;;;;;;6.75;1.95;;;;;;;;;;4942386;28;20147;-60
2023/06/16 08:38:39;;;;;;;4.85;2.20;;;;;;;;;;4943073;28;20042;-59
2023/06/16 08:41:06;;;;;;;4.20;1.88;;;;;;;;;;4945482;28;20038;-59
2023/06/16 08:43:36;;;;;;;5.60;2.25;;;;;;;;;;4946905;28;20074;-60
2023/06/16 08:46:03;;;;;;;3.53;1.58;;;;;;;;;;4945831;28;21142;-59
2023/06/16 08:48:29;;;;;;;4.55;1.98;;;;;;;;;;4953220;28;20030;-60
2023/06/16 08:50:59;;;;;;;4.75;1.90;;;;;;;;;;4953994;28;20039;-60
2023/06/16 08:53:29;;;;;;;4.85;2.25;;;;;;;;;;4953605;28;20469;-59
2023/06/16 08:55:56;;;;;;;6.35;2.00;;;;;;;;;;4953311;28;20050;-59
2023/06/16 08:58:22;;;;;;;4.57;1.90;;;;;;;;;;4953323;28;20077;-60
2023/06/16 09:00:50;;;;;;;5.47;2.20;;;;;;;;;;4952920;28;21019;-59
2023/06/16 09:03:17;;;;;;;3.92;1.90;;;;;;;;;;4953698;28;20069;-59
2023/06/16 09:05:43;;;;;;;4.88;1.70;;;;;;;;;;4953847;28;20035;-60
2023/06/16 09:08:11;;;;;;;3.80;1.90;;;;;;;;;;4953703;28;20614;-60
2023/06/16 09:10:37;;;;;;;4.38;2.30;;;;;;;;;;4953064;28;20078;-60
2023/06/16 09:13:03;;;;;;;5.13;1.75;;;;;;;;;;4953106;28;20377;-59
2023/06/16 09:15:29;;;;;;;5.00;1.92;;;;;;;;;;4952054;28;20030;-60
2023/06/16 09:17:58;;;;;;;3.30;1.70;;;;;;;;;;4951654;28;20038;-60
2023/06/16 09:20:25;;;;;;;4.57;1.77;;;;;;;;;;4951722;28;20047;-59
2023/06/16 09:22:59;;;;;;;3.95;1.60;;;;;;;;;;4952723;28;20042;-59
2023/06/16 09:25:25;;;;;;;4.07;1.92;;;;;;;;;;4952575;28;20038;-59
2023/06/16 09:27:51;;;;;;;4.15;1.70;;;;;;;;;;4952285;28;20043;-60
2023/06/16 09:30:18;;;;;;;3.85;1.60;;;;;;;;;;4953878;28;20035;-59
2023/06/16 09:32:48;;;;;;;5.18;2.13;;;;;;;;;;4953990;28;20026;-59
2023/06/16 09:35:20;;;;;;;7.45;1.80;;;;;;;;;;4953483;28;20018;-60
2023/06/16 09:37:50;;;;;;;6.13;1.70;;;;;;;;;;4952739;28;20039;-59
2023/06/16 09:40:17;;;;;;;4.10;1.70;;;;;;;;;;4953573;28;20089;-59
2023/06/16 09:42:44;;;;;;;3.53;1.77;;;;;;;;;;4953926;28;20154;-59
2023/06/16 09:45:12;;;;;;;5.50;1.63;;;;;;;;;;4952973;28;20042;-60
2023/06/16 09:47:38;;;;;;;4.78;1.63;;;;;;;;;;4953804;28;20901;-59
2023/06/16 09:50:11;;;;;;;3.40;1.50;;;;;;;;;;4954282;28;20038;-59
2023/06/16 09:52:37;;;;;;;4.15;1.88;;;;;;;;;;4956698;28;20027;-59
2023/06/16 09:55:06;;;;;;;5.28;1.80;;;;;;;;;;4956996;28;20031;-59
2023/06/16 09:57:32;;;;;;;8.25;1.88;;;;;;;;;;4956403;28;20034;-60
2023/06/16 09:59:58;;;;;;;7.85;2.10;;;;;;;;;;4929863;28;20038;-60
2023/06/16 10:02:26;;;;;;;3.38;1.75;;;;;;;;;;4956709;28;20042;-60
2023/06/16 10:04:55;;;;;;;4.88;1.65;;;;;;;;;;4955818;28;20042;-60
2023/06/16 10:07:22;;;;;;;3.95;1.73;;;;;;;;;;4957063;28;20070;-60
2023/06/16 10:09:50;;;;;;;3.35;1.55;;;;;;;;;;4956654;28;20039;-60
2023/06/16 10:12:19;;;;;;;5.90;2.20;;;;;;;;;;4956812;28;20126;-59
2023/06/16 10:14:45;;;;;;;4.50;1.67;;;;;;;;;;4957377;28;20121;-60
2023/06/16 10:17:11;;;;;;;4.18;2.17;;;;;;;;;;4944205;28;20528;-59
2023/06/16 10:19:38;;;;;;;4.13;1.80;;;;;;;;;;4956373;28;20046;-59
2023/06/16 10:22:05;;;;;;;4.72;1.90;;;;;;;;;;4956585;28;20031;-59
2023/06/16 10:24:31;;;;;;;4.32;2.00;;;;;;;;;;4956750;28;20042;-59
2023/06/16 10:26:58;;;;;;;4.68;2.10;;;;;;;;;;4956579;28;20029;-59
2023/06/16 10:29:25;;;;;;;5.13;2.10;;;;;;;;;;4956951;28;20560;-60
2023/06/16 10:32:03;;;;;;;5.18;2.00;;;;;;;;;;4955276;28;20035;-60
2023/06/16 10:34:30;;;;;;;6.53;1.60;;;;;;;;;;4956166;28;20556;-60
2023/06/16 10:36:57;;;;;;;5.05;1.95;;;;;;;;;;4954154;28;20031;-59
2023/06/16 10:39:23;;;;;;;5.13;2.10;;;;;;;;;;4954693;28;20565;-59
2023/06/16 10:41:51;;;;;;;4.47;2.20;;;;;;;;;;4954779;28;20050;-60
2023/06/16 10:44:27;;;;;;;5.97;2.03;;;;;;;;;;4955542;28;20034;-59
2023/06/16 10:47:05;;;;;;;4.07;1.88;;;;;;;;;;4955190;28;20036;-59
2023/06/16 10:49:32;;;;;;;3.47;1.90;;;;;;;;;;4955214;28;20030;-59
2023/06/16 10:52:02;;;;;;;4.95;2.15;;;;;;;;;;4955651;28;20053;-59
2023/06/16 10:54:37;;;;;;;7.47;2.17;;;;;;;;;;4955113;28;20503;-59
2023/06/16 10:57:03;;;;;;;3.60;1.88;;;;;;;;;;4955671;28;20030;-59
2023/06/16 10:59:29;;;;;;;5.82;1.88;;;;;;;;;;4956268;28;20050;-59
2023/06/16 11:01:57;;;;;;;7.78;1.90;;;;;;;;;;4953275;28;21082;-59
2023/06/16 11:04:24;;;;;;;5.47;1.80;;;;;;;;;;4956214;28;20165;-59
2023/06/16 11:07:07;;;;;;;4.97;1.75;;;;;;;;;;4954896;28;20038;-59
2023/06/16 11:09:35;;;;;;;3.67;2.00;;;;;;;;;;4955777;28;20138;-60
2023/06/16 11:12:01;;;;;;;3.60;1.75;;;;;;;;;;4955186;28;20027;-59
2023/06/16 11:14:28;;;;;;;3.25;1.75;;;;;;;;;;4955335;28;20046;-59
2023/06/16 11:16:54;;;;;;;3.72;1.98;;;;;;;;;;4955971;28;20125;-59
2023/06/16 11:19:20;;;;;;;2.72;1.67;;;;;;;;;;4955449;28;20039;-60
2023/06/16 11:21:46;;;;;;;7.35;2.85;;;;;;;;;;4955014;28;20050;-59
2023/06/16 11:24:13;;;;;;;4.07;1.83;;;;;;;;;;4955429;28;20072;-59
2023/06/16 11:26:40;;;;;;;5.95;1.98;;;;;;;;;;4955034;28;20038;-59
2023/06/16 11:29:07;;;;;;;4.85;1.95;;;;;;;;;;4955586;28;20046;-59
2023/06/16 11:31:37;;;;;;;5.13;2.17;;;;;;;;;;4955518;28;20058;-60
2023/06/16 11:34:03;;;;;;;5.38;2.03;;;;;;;;;;4955881;28;20027;-60
2023/06/16 11:36:30;;;;;;;3.25;1.77;;;;;;;;;;4954289;28;20030;-60
2023/06/16 11:38:56;;;;;;;3.45;1.90;;;;;;;;;;4955147;28;20049;-59
2023/06/16 11:41:23;;;;;;;3.83;1.73;;;;;;;;;;4954889;28;20778;-59
2023/06/16 11:43:50;;;;;;;6.68;2.10;;;;;;;;;;4953870;28;20023;-59
2023/06/16 11:46:19;;;;;;;2.92;1.70;;;;;;;;;;4955519;28;20049;-59
2023/06/16 11:48:45;;;;;;;3.72;1.98;;;;;;;;;;4955025;28;20022;-59
2023/06/16 11:51:11;;;;;;;5.55;1.90;;;;;;;;;;4954980;28;20034;-59
2023/06/16 11:53:38;;;;;;;7.03;2.28;;;;;;;;;;4954711;28;20046;-59
2023/06/16 11:56:09;;;;;;;4.03;1.60;;;;;;;;;;4954618;28;20035;-59
2023/06/16 11:58:35;;;;;;;3.80;1.70;;;;;;;;;;4954523;28;20090;-59
2023/06/16 12:01:02;;;;;;;6.90;2.30;;;;;;;;;;4955009;28;20034;-59
2023/06/16 12:03:29;;;;;;;4.60;1.80;;;;;;;;;;4954473;28;20043;-59
2023/06/16 12:05:56;;;;;;;5.90;1.80;;;;;;;;;;4954402;28;20160;-59
2023/06/16 12:08:40;;;;;;;4.13;1.90;;;;;;;;;;4954211;28;20047;-60
2023/06/16 12:11:08;;;;;;;7.40;2.80;;;;;;;;;;4953348;28;21777;-59
2023/06/16 12:13:34;;;;;;;3.85;1.50;;;;;;;;;;4954056;28;20039;-59
2023/06/16 12:16:05;;;;;;;7.55;1.88;;;;;;;;;;4953129;28;20027;-59
2023/06/16 12:18:31;;;;;;;7.07;2.30;;;;;;;;;;4953150;28;20066;-59
2023/06/16 12:20:57;;;;;;;3.67;1.73;;;;;;;;;;4954482;28;20173;-60
2023/06/16 12:23:24;;;;;;;4.97;1.95;;;;;;;;;;4954213;28;20042;-59
2023/06/16 12:25:50;;;;;;;5.78;1.75;;;;;;;;;;4954134;28;20023;-59
2023/06/16 12:28:21;;;;;;;3.25;1.58;;;;;;;;;;4954214;28;20069;-59
2023/06/16 12:30:47;;;;;;;3.17;1.60;;;;;;;;;;4954349;28;20502;-60
2023/06/16 12:33:15;;;;;;;4.50;2.10;;;;;;;;;;4951109;28;20746;-59
2023/06/16 12:35:41;;;;;;;3.63;1.98;;;;;;;;;;4954081;28;20030;-59
2023/06/16 12:38:07;;;;;;;4.05;1.83;;;;;;;;;;4953877;28;20038;-59
2023/06/16 12:40:33;;;;;;;5.85;2.38;;;;;;;;;;4926672;28;20050;-59
2023/06/16 12:43:18;;;;;;;5.93;2.05;;;;;;;;;;4954069;28;20038;-59
2023/06/16 12:45:44;;;;;;;9.02;2.40;;;;;;;;;;4953542;28;20035;-59
2023/06/16 12:48:10;;;;;;;3.28;1.73;;;;;;;;;;4951929;28;20920;-59
2023/06/16 12:50:36;;;;;;;4.38;1.88;;;;;;;;;;4952196;28;20502;-60
2023/06/16 12:53:02;;;;;;;5.50;2.05;;;;;;;;;;4953411;28;20461;-59
2023/06/16 12:55:28;;;;;;;4.53;2.00;;;;;;;;;;4952075;28;20506;-60
2023/06/16 12:57:54;;;;;;;5.20;2.17;;;;;;;;;;4952382;28;20039;-59
2023/06/16 13:00:21;;;;;;;3.85;1.98;;;;;;;;;;4952298;28;20047;-59
2023/06/16 13:02:47;;;;;;;6.13;2.35;;;;;;;;;;4953654;28;20434;-59
2023/06/16 13:05:13;;;;;;;6.10;2.22;;;;;;;;;;4952866;28;20039;-59
2023/06/16 13:07:40;;;;;;;5.50;2.20;;;;;;;;;;4953507;28;20457;-59
2023/06/16 13:10:06;;;;;;;7.25;3.80;;;;;;;;;;4951499;28;20110;-59
2023/06/16 13:12:32;;;;;;;5.55;2.40;;;;;;;;;;4953265;28;20027;-59
2023/06/16 13:14:58;;;;;;;5.80;2.42;;;;;;;;;;4953250;28;20023;-59
2023/06/16 13:17:24;;;;;;;4.95;2.10;;;;;;;;;;4953534;28;20035;-59
2023/06/16 13:19:51;;;;;;;4.63;2.67;;;;;;;;;;4954396;28;20023;-59
2023/06/16 13:22:17;;;;;;;6.32;2.28;;;;;;;;;;4953886;28;20535;-59
2023/06/16 13:24:43;;;;;;;7.65;2.13;;;;;;;;;;4954430;28;20039;-59
2023/06/16 13:27:09;;;;;;;3.05;1.70;;;;;;;;;;4956361;28;20057;-59
2023/06/16 13:29:35;;;;;;;4.72;2.15;;;;;;;;;;4956072;28;20054;-59
2023/06/16 13:32:01;;;;;;;4.63;2.03;;;;;;;;;;4957182;28;20038;-59
2023/06/16 13:34:27;;;;;;;4.57;2.05;;;;;;;;;;4957727;28;20495;-59
2023/06/16 13:36:53;;;;;;;5.10;2.50;;;;;;;;;;4957296;28;21087;-59
2023/06/16 13:39:19;;;;;;;7.07;2.70;;;;;;;;;;4957718;28;21514;-59
2023/06/16 13:41:46;;;;;;;5.95;2.10;;;;;;;;;;4957174;28;20118;-59
2023/06/16 13:44:12;;;;;;;6.07;1.85;;;;;;;;;;4955888;28;20097;-59
2023/06/16 13:46:39;;;;;;;5.95;2.33;;;;;;;;;;4958080;28;20148;-60
2023/06/16 13:49:05;;;;;;;4.30;2.40;;;;;;;;;;4957049;28;20121;-59
2023/06/16 13:51:31;;;;;;;4.63;2.05;;;;;;;;;;4957683;28;20066;-59
2023/06/16 13:53:57;;;;;;;8.90;2.33;;;;;;;;;;4957593;28;20039;-59
2023/06/16 13:56:24;;;;;;;5.43;1.98;;;;;;;;;;4957593;28;20149;-59
2023/06/16 13:58:50;;;;;;;4.60;2.22;;;;;;;;;;4957049;28;21802;-59
2023/06/16 14:01:16;;;;;;;7.70;2.55;;;;;;;;;;4958163;28;20559;-59
2023/06/16 14:03:42;;;;;;;4.28;2.28;;;;;;;;;;4957257;28;20114;-59
2023/06/16 14:06:08;;;;;;;5.15;2.67;;;;;;;;;;4956957;28;20122;-59
2023/06/16 14:08:34;;;;;;;8.52;3.80;;;;;;;;;;4956955;28;20136;-60
2023/06/16 14:11:01;;;;;;;5.80;2.47;;;;;;;;;;4957081;28;20037;-59
2023/06/16 14:13:27;;;;;;;5.95;3.03;;;;;;;;;;4956489;28;20019;-59
2023/06/16 14:15:53;;;;;;;7.80;4.07;;;;;;;;;;4957511;28;20046;-59
2023/06/16 14:18:19;;;;;;;4.47;2.00;;;;;;;;;;4957074;28;22011;-59
2023/06/16 14:20:45;;;;;;;5.40;2.92;;;;;;;;;;4956664;28;20035;-59
2023/06/16 14:23:15;;;;;;;7.28;2.67;;;;;;;;;;4957212;28;20034;-59
2023/06/16 14:25:44;;;;;;;4.28;2.40;;;;;;;;;;4956672;28;20581;-59
2023/06/16 14:28:10;;;;;;;4.80;2.53;;;;;;;;;;4956878;28;20030;-59
2023/06/16 14:30:38;;;;;;;4.47;1.88;;;;;;;;;;4956536;28;20034;-59
2023/06/16 14:33:05;;;;;;;4.40;2.03;;;;;;;;;;4956821;28;20035;-59
2023/06/16 14:35:31;;;;;;;4.53;1.80;;;;;;;;;;4956869;28;20481;-59
2023/06/16 14:37:57;;;;;;;5.38;2.03;;;;;;;;;;4956896;28;20034;-59
2023/06/16 14:40:23;;;;;;;3.35;1.75;;;;;;;;;;4954967;28;20035;-59
2023/06/16 14:42:49;;;;;;;4.53;1.80;;;;;;;;;;4957112;28;20034;-59
2023/06/16 14:45:16;;;;;;;4.40;2.22;;;;;;;;;;4955375;28;20039;-59
2023/06/16 14:47:42;;;;;;;6.50;1.80;;;;;;;;;;4956485;28;20038;-59
2023/06/16 14:50:08;;;;;;;7.60;2.20;;;;;;;;;;4956751;28;20035;-59
2023/06/16 14:52:34;;;;;;;7.43;1.95;;;;;;;;;;4956426;28;20035;-59
2023/06/16 14:55:01;;;;;;;4.07;1.88;;;;;;;;;;4956345;28;20031;-59
2023/06/16 14:57:27;;;;;;;4.35;1.85;;;;;;;;;;4954358;28;20114;-59
2023/06/16 14:59:53;;;;;;;3.20;1.58;;;;;;;;;;4955508;28;20035;-59
2023/06/16 15:02:19;;;;;;;3.97;1.92;;;;;;;;;;4954686;28;20161;-59